馬祖北竿航空站 - ATIS

METAR RCMT 200600Z 03021KT 7000 FEW015 BKN040 BKN070 12/07 Q1023 NOSIG RMK A3023(Z)=

站台狀態:Online
最後更新:2022-01-20 21:00:02